This is the latest recevied weather packets stored in our database for station/object KR8N. If no packets are shown the sender has not sent any weather packets the latest 10 day(s).
| Time | Temp. | Humidity | Pressure | Rain* | Wind** | Luminosity | Snow |
|---|---|---|---|---|---|---|---|
| 1777809916 | 3.89° C | 72% | 1022 hPa | 0 mm | - | 97 W/m² | - |
| 1777809615 | 3.89° C | 74% | 1021.9 hPa | 0 mm | - | 85 W/m² | - |
| 1777809312 | 3.33° C | 75% | 1022 hPa | 0 mm | - | 75 W/m² | - |
| 1777809009 | 3.33° C | 75% | 1021.9 hPa | 0 mm | - | 68 W/m² | - |
| 1777808706 | 2.78° C | 79% | 1022 hPa | 0 mm | - | 61 W/m² | - |
| 1777808403 | 1.67° C | 85% | 1021.7 hPa | 0 mm | - | 55 W/m² | - |
| 1777808101 | 1.11° C | 91% | 1021.7 hPa | 0 mm | - | 83 W/m² | - |
| 1777807798 | 0° C | 94% | 1021.7 hPa | 0 mm | - | 68 W/m² | - |
| 1777807496 | -0.56° C | 95% | 1021.8 hPa | 0 mm | - | 60 W/m² | - |
| 1777807192 | -0.56° C | 95% | 1021.6 hPa | 0 mm | - | 28 W/m² | - |
| 1777806889 | -1.11° C | 95% | 1021.3 hPa | 0 mm | - | 26 W/m² | - |
| 1777806585 | -1.11° C | 95% | 1021.4 hPa | 0 mm | - | 24 W/m² | - |
| 1777806282 | -1.11° C | 94% | 1021.3 hPa | 0 mm | - | 22 W/m² | - |
| 1777805978 | -1.11° C | 94% | 1021.1 hPa | 0 mm | - | 20 W/m² | - |
| 1777805675 | -1.11° C | 94% | 1021.1 hPa | 0 mm | - | 17 W/m² | - |
| 1777805373 | -1.11° C | 94% | 1021 hPa | 0 mm | - | 14 W/m² | - |
| 1777805071 | -1.11° C | 94% | 1021.2 hPa | 0 mm | - | 12 W/m² | - |
| 1777804767 | -1.11° C | 94% | 1021 hPa | 0 mm | - | 9 W/m² | - |
| 1777804466 | -1.11° C | 94% | 1020.9 hPa | 0 mm | - | 6 W/m² | - |
| 1777804163 | -1.67° C | 94% | 1021 hPa | 0 mm | - | 4 W/m² | - |
| 1777803860 | -1.67° C | 94% | 1021 hPa | 0 mm | - | 2 W/m² | - |
| 1777803555 | -1.67° C | 94% | 1021.1 hPa | 0 mm | - | 1 W/m² | - |
| 1777803253 | -1.67° C | 94% | 1020.9 hPa | 0 mm | - | 0 W/m² | - |
| 1777802949 | -1.67° C | 94% | 1020.8 hPa | 0 mm | - | 0 W/m² | - |
| 1777802648 | -1.67° C | 93% | 1020.8 hPa | 0 mm | - | 0 W/m² | - |
* Rain latest hour (hover to see other rain measurements)
** Current wind speed in m/s (hover to see current wind gust speed)